createdAt,value
2019-03-12T00:02:15.473Z,11.70
2019-03-12T00:04:42.408Z,8.97
2019-03-12T00:07:09.362Z,7.00
2019-03-12T00:09:36.324Z,6.80
2019-03-12T00:12:03.385Z,8.43
2019-03-12T00:14:30.285Z,8.10
2019-03-12T00:16:57.233Z,12.50
2019-03-12T00:19:24.262Z,14.20
2019-03-12T00:21:51.225Z,16.87
2019-03-12T00:24:18.153Z,5.90
2019-03-12T00:26:45.151Z,9.13
2019-03-12T00:29:12.061Z,16.07
2019-03-12T00:31:39.007Z,9.77
2019-03-12T00:34:06.018Z,9.83
2019-03-12T00:36:32.964Z,10.70
2019-03-12T00:38:59.899Z,18.67
2019-03-12T00:41:26.897Z,9.20
2019-03-12T00:43:53.827Z,12.53
2019-03-12T00:46:20.866Z,15.40
2019-03-12T00:48:47.825Z,12.03
2019-03-12T00:51:14.775Z,8.80
2019-03-12T00:53:41.737Z,12.00
2019-03-12T00:56:08.730Z,14.27
2019-03-12T00:58:35.647Z,15.27
2019-03-12T01:01:02.733Z,9.80
2019-03-12T01:03:29.640Z,9.70
2019-03-12T01:05:56.921Z,6.27
2019-03-12T01:08:23.876Z,11.87
2019-03-12T01:10:50.798Z,13.97
2019-03-12T01:13:17.822Z,8.53
2019-03-12T01:15:44.851Z,10.83
2019-03-12T01:18:13.806Z,10.93
2019-03-12T01:20:40.627Z,16.97
2019-03-12T01:23:07.650Z,7.97
2019-03-12T01:25:34.578Z,9.47
2019-03-12T01:28:01.547Z,16.63
2019-03-12T01:30:28.523Z,16.43
2019-03-12T01:32:55.514Z,10.73
2019-03-12T01:35:22.438Z,14.07
2019-03-12T01:37:49.385Z,14.03
2019-03-12T01:40:16.393Z,12.70
2019-03-12T01:42:43.383Z,15.40
2019-03-12T01:45:11.738Z,11.70
2019-03-12T01:47:38.720Z,10.10
2019-03-12T01:50:06.253Z,6.90
2019-03-12T01:52:33.218Z,12.10
2019-03-12T01:55:00.490Z,13.23
2019-03-12T01:57:27.448Z,4.00
2019-03-12T01:59:54.359Z,10.73
2019-03-12T02:02:21.299Z,10.30
2019-03-12T02:04:48.200Z,20.97
2019-03-12T02:07:15.145Z,11.73
2019-03-12T02:09:42.070Z,18.70
2019-03-12T02:12:09.012Z,13.93
2019-03-12T02:14:36.780Z,8.97
2019-03-12T02:17:03.755Z,10.50
2019-03-12T02:19:30.667Z,9.20
2019-03-12T02:21:57.591Z,12.33
2019-03-12T02:24:24.531Z,15.87
2019-03-12T02:26:51.439Z,12.53
2019-03-12T02:29:18.393Z,8.80
2019-03-12T02:31:45.316Z,17.10
2019-03-12T02:34:12.269Z,20.20
2019-03-12T02:36:39.169Z,11.73
2019-03-12T02:39:07.354Z,11.87
2019-03-12T02:41:34.294Z,14.10
2019-03-12T02:44:01.246Z,13.77
2019-03-12T02:46:28.197Z,16.47
2019-03-12T02:48:55.144Z,19.20
2019-03-12T02:51:22.062Z,12.13
2019-03-12T02:53:48.999Z,14.27
2019-03-12T02:56:15.957Z,8.70
2019-03-12T02:58:42.893Z,16.13
2019-03-12T03:01:09.804Z,12.70
2019-03-12T03:03:36.745Z,18.57
2019-03-12T03:06:11.079Z,12.43
2019-03-12T03:08:38.012Z,17.43
2019-03-12T03:11:04.911Z,17.70
2019-03-12T03:13:31.862Z,19.87
2019-03-12T03:15:58.800Z,18.90
2019-03-12T03:18:25.757Z,16.83
2019-03-12T03:20:52.684Z,15.47
2019-03-12T03:23:19.623Z,15.60
2019-03-12T03:25:46.526Z,13.67
2019-03-12T03:28:13.476Z,19.93
2019-03-12T03:30:40.393Z,18.13
2019-03-12T03:33:07.339Z,14.53
2019-03-12T03:35:34.257Z,12.70
2019-03-12T03:38:01.205Z,13.03
2019-03-12T03:40:28.142Z,21.93
2019-03-12T03:42:55.073Z,23.87
2019-03-12T03:45:21.996Z,18.23
2019-03-12T03:47:48.909Z,23.20
2019-03-12T03:50:16.059Z,11.90
2019-03-12T03:52:42.970Z,19.37
2019-03-12T03:55:11.977Z,11.93
2019-03-12T03:57:38.901Z,16.20
2019-03-12T04:00:08.335Z,19.10
2019-03-12T04:02:35.257Z,18.47
2019-03-12T04:05:02.356Z,23.33
2019-03-12T04:07:29.304Z,24.47
2019-03-12T04:09:56.230Z,23.97
2019-03-12T04:12:23.194Z,20.30
2019-03-12T04:14:50.169Z,17.30
2019-03-12T04:17:17.095Z,24.90
2019-03-12T04:19:44.045Z,26.93
2019-03-12T04:22:10.999Z,16.17
2019-03-12T04:24:37.972Z,25.10
2019-03-12T04:27:04.916Z,25.03
2019-03-12T04:29:31.882Z,22.63
2019-03-12T04:31:58.793Z,27.47
2019-03-12T04:34:37.465Z,17.87
2019-03-12T04:37:04.377Z,29.33
2019-03-12T04:39:31.379Z,31.67
2019-03-12T04:41:58.351Z,26.27
2019-03-12T04:44:25.308Z,13.53
2019-03-12T04:46:52.254Z,16.97
2019-03-12T04:49:19.219Z,27.43
2019-03-12T04:51:46.118Z,34.07
2019-03-12T04:54:13.072Z,29.63
2019-03-12T04:56:40.093Z,27.40
2019-03-12T04:59:07.076Z,22.27
2019-03-12T05:01:33.990Z,13.93
2019-03-12T05:04:00.959Z,24.97
2019-03-12T05:06:27.883Z,26.20
2019-03-12T05:08:54.853Z,19.90
2019-03-12T05:11:21.751Z,18.67
2019-03-12T05:14:18.108Z,13.57
2019-03-12T05:16:45.034Z,23.23
2019-03-12T05:19:12.010Z,21.60
2019-03-12T05:21:38.930Z,27.13
2019-03-12T05:24:05.875Z,14.77
2019-03-12T05:26:32.792Z,16.97
2019-03-12T05:28:59.737Z,22.17
2019-03-12T05:31:26.680Z,13.03
2019-03-12T05:33:53.593Z,11.77
2019-03-12T05:36:20.535Z,20.57
2019-03-12T05:38:47.450Z,19.83
2019-03-12T05:41:14.472Z,16.90
2019-03-12T05:43:41.412Z,20.73
2019-03-12T05:46:08.387Z,22.33
2019-03-12T05:48:35.304Z,17.37
2019-03-12T05:51:02.315Z,13.53
2019-03-12T05:53:48.070Z,13.50
2019-03-12T05:56:15.151Z,14.73
2019-03-12T05:58:42.065Z,15.90
2019-03-12T06:01:09.227Z,15.40
2019-03-12T06:03:36.188Z,14.67
2019-03-12T06:06:03.109Z,18.10
2019-03-12T06:08:30.085Z,16.23
2019-03-12T06:10:57.141Z,20.50
2019-03-12T06:13:24.115Z,24.40
2019-03-12T06:16:01.909Z,19.87
2019-03-12T06:18:45.860Z,17.63
2019-03-12T06:21:13.316Z,13.80
2019-03-12T06:23:40.234Z,21.23
2019-03-12T06:26:07.195Z,18.63
2019-03-12T06:28:34.141Z,19.33
2019-03-12T06:31:16.171Z,22.43
2019-03-12T06:34:05.254Z,18.80
2019-03-12T06:36:36.525Z,19.00
2019-03-12T06:39:19.370Z,15.00
2019-03-12T06:41:53.954Z,14.53
2019-03-12T06:44:32.278Z,18.03
2019-03-12T06:47:10.055Z,18.80
2019-03-12T06:49:54.130Z,18.17
2019-03-12T06:52:40.726Z,29.97
2019-03-12T06:55:23.230Z,19.50
2019-03-12T06:58:34.214Z,22.53
2019-03-12T07:01:20.821Z,17.40
2019-03-12T07:04:10.189Z,14.33
2019-03-12T07:06:56.782Z,22.23
2019-03-12T07:09:45.012Z,18.03
2019-03-12T07:12:22.665Z,16.93
2019-03-12T07:15:05.097Z,22.60
2019-03-12T07:18:00.796Z,17.43
2019-03-12T07:20:50.296Z,19.17
2019-03-12T07:23:35.615Z,17.07
2019-03-12T07:26:21.095Z,20.50
2019-03-12T07:29:06.121Z,13.90
2019-03-12T07:31:39.365Z,16.00
2019-03-12T07:34:36.758Z,17.90
2019-03-12T07:37:20.748Z,18.73
2019-03-12T07:40:00.308Z,15.10
2019-03-12T07:42:41.803Z,17.10
2019-03-12T07:45:14.360Z,17.13
2019-03-12T07:48:00.967Z,13.07
2019-03-12T07:50:37.502Z,9.93
2019-03-12T07:53:22.809Z,18.00
2019-03-12T07:56:04.552Z,15.57
2019-03-12T07:59:09.426Z,13.50
2019-03-12T08:01:56.021Z,12.93
2019-03-12T08:04:43.418Z,9.70
2019-03-12T08:07:41.430Z,12.87
2019-03-12T08:10:26.620Z,27.33
2019-03-12T14:15:49.123Z,7.53
2019-03-12T14:18:16.052Z,6.57
2019-03-12T14:20:44.807Z,9.60
2019-03-12T14:23:14.291Z,8.00
2019-03-12T14:25:41.364Z,5.23
2019-03-12T14:28:08.308Z,6.43
2019-03-12T14:30:35.278Z,2.87
2019-03-12T14:33:02.499Z,4.00
2019-03-12T14:35:29.480Z,14.63
2019-03-12T14:37:56.488Z,7.57
2019-03-12T14:40:23.548Z,6.03
2019-03-12T14:42:50.542Z,7.33
2019-03-12T14:45:24.152Z,5.03
2019-03-12T14:47:51.121Z,6.37
2019-03-12T14:50:18.186Z,8.97
2019-03-12T14:52:47.491Z,3.63
2019-03-12T14:55:14.434Z,3.07
2019-03-12T14:57:41.415Z,3.90
2019-03-12T15:00:18.113Z,4.83
2019-03-12T15:02:45.113Z,5.77
2019-03-12T15:05:12.053Z,5.23
2019-03-12T15:07:39.027Z,2.37
2019-03-12T15:10:07.167Z,6.57
2019-03-12T15:12:34.129Z,4.90
2019-03-12T15:15:01.094Z,3.10
2019-03-12T15:17:28.085Z,4.00
2019-03-12T15:19:55.051Z,5.30
2019-03-12T15:22:22.032Z,4.70
2019-03-12T15:24:48.954Z,3.57
2019-03-12T15:27:15.920Z,3.67
2019-03-12T15:29:42.866Z,7.90
2019-03-12T15:32:09.854Z,8.70
2019-03-12T15:34:36.814Z,6.37
2019-03-12T15:37:03.777Z,8.80
2019-03-12T15:39:30.724Z,5.70
2019-03-12T15:41:57.731Z,5.20
2019-03-12T15:44:24.682Z,6.27
2019-03-12T15:46:51.682Z,6.30
2019-03-12T15:49:18.671Z,5.60
2019-03-12T15:51:45.671Z,3.70
2019-03-12T15:54:12.600Z,4.43
2019-03-12T15:56:39.579Z,7.73
2019-03-12T15:59:06.567Z,3.67
2019-03-12T16:01:33.561Z,10.80
2019-03-12T16:04:00.533Z,6.87
2019-03-12T16:06:27.527Z,6.13
2019-03-12T16:08:54.477Z,3.73
2019-03-12T16:11:21.472Z,2.10
2019-03-12T16:13:48.525Z,7.20
2019-03-12T16:16:15.507Z,3.07
2019-03-12T16:18:42.825Z,5.97
2019-03-12T16:21:09.888Z,3.47
2019-03-12T16:23:36.929Z,4.77
2019-03-12T16:26:03.893Z,5.07
2019-03-12T16:28:30.883Z,8.30
2019-03-12T16:30:57.827Z,6.23
2019-03-12T16:33:24.787Z,9.07
2019-03-12T16:35:51.790Z,4.17
2019-03-12T16:38:18.858Z,6.83
2019-03-12T16:40:45.858Z,3.17
2019-03-12T16:43:12.992Z,4.73
2019-03-12T16:45:39.949Z,5.00
2019-03-12T16:48:06.912Z,4.40
2019-03-12T16:50:33.849Z,6.70
2019-03-12T16:53:00.808Z,4.00
2019-03-12T16:55:27.831Z,6.07
2019-03-12T16:57:55.063Z,6.87
2019-03-12T17:00:22.314Z,6.07
2019-03-12T17:02:49.404Z,8.60
2019-03-12T17:05:16.535Z,3.57
2019-03-12T17:07:43.622Z,2.97
2019-03-12T17:10:10.917Z,6.63
2019-03-12T17:12:38.053Z,2.50
2019-03-12T17:15:06.304Z,3.70
2019-03-12T17:17:33.311Z,5.80
2019-03-12T17:20:01.194Z,5.23
2019-03-12T17:22:28.178Z,7.83
2019-03-12T17:24:55.121Z,4.00
2019-03-12T17:27:22.139Z,6.30
2019-03-12T17:29:49.104Z,7.80
2019-03-12T17:32:16.393Z,3.90
2019-03-12T17:34:43.347Z,7.10
2019-03-12T17:37:10.302Z,7.77
2019-03-12T17:39:37.283Z,5.70
2019-03-12T17:42:04.228Z,3.67
2019-03-12T17:44:31.192Z,3.40
2019-03-12T17:46:58.123Z,6.03
2019-03-12T17:49:25.102Z,4.50
2019-03-12T17:51:52.038Z,5.33
2019-03-12T17:54:19.364Z,3.57
2019-03-12T17:56:46.363Z,4.20
2019-03-12T17:59:13.351Z,3.77
2019-03-12T18:01:40.279Z,2.63
2019-03-12T18:04:07.241Z,1.90
2019-03-12T18:06:35.218Z,5.37
2019-03-12T18:09:04.232Z,3.17
2019-03-12T18:11:31.187Z,4.90
2019-03-12T18:13:58.155Z,4.97
2019-03-12T18:16:25.127Z,4.93
2019-03-12T18:18:52.105Z,2.13
2019-03-12T18:21:19.175Z,2.27
2019-03-12T18:23:46.151Z,5.07
2019-03-12T18:26:13.106Z,1.60
2019-03-12T18:28:40.118Z,3.20
2019-03-12T18:31:07.123Z,4.63
2019-03-12T18:33:34.169Z,6.30
2019-03-12T18:36:01.208Z,3.27
2019-03-12T18:38:28.210Z,5.03
2019-03-12T18:40:55.290Z,2.57
2019-03-12T18:43:23.076Z,4.23
2019-03-12T18:45:50.179Z,1.67
2019-03-12T18:48:17.187Z,5.97
2019-03-12T18:50:44.203Z,1.90
2019-03-12T18:53:11.155Z,3.53
2019-03-12T18:55:43.367Z,2.43
2019-03-12T18:58:10.456Z,2.57
2019-03-12T19:00:37.441Z,6.70
2019-03-12T19:03:04.432Z,10.63
2019-03-12T19:05:31.417Z,4.93
2019-03-12T19:07:58.662Z,4.70
2019-03-12T19:10:26.091Z,4.67
2019-03-12T19:12:53.263Z,2.83
2019-03-12T19:15:20.724Z,2.43
2019-03-12T19:17:48.178Z,4.10
2019-03-12T19:20:15.179Z,5.30
2019-03-12T19:22:42.159Z,3.87
2019-03-12T19:25:09.296Z,1.50
2019-03-12T19:27:36.449Z,10.33
2019-03-12T19:30:04.618Z,3.37
2019-03-12T19:32:43.815Z,4.50
2019-03-12T19:35:12.164Z,4.27
2019-03-12T19:37:39.135Z,3.93
2019-03-12T19:40:09.499Z,3.17
2019-03-12T19:42:36.462Z,3.77
2019-03-12T19:45:03.845Z,3.10
2019-03-12T19:47:30.813Z,1.60
2019-03-12T19:49:57.827Z,5.10
2019-03-12T19:52:24.911Z,1.40
2019-03-12T19:54:51.867Z,4.17
2019-03-12T19:57:18.813Z,5.27
2019-03-12T19:59:45.893Z,2.00
2019-03-12T20:02:16.346Z,3.03
2019-03-12T20:04:47.372Z,1.77
2019-03-12T20:07:12.519Z,2.50
2019-03-12T20:10:27.158Z,2.33
2019-03-12T20:13:31.288Z,4.40
2019-03-12T20:16:46.189Z,3.97
2019-03-12T20:19:54.902Z,1.73
2019-03-12T20:22:44.141Z,2.10
2019-03-12T20:25:53.442Z,2.50
2019-03-12T20:29:04.111Z,3.10
2019-03-12T20:32:16.469Z,1.30
2019-03-12T20:35:36.726Z,2.43
2019-03-12T20:38:44.799Z,3.77
2019-03-12T20:41:58.405Z,3.33
2019-03-12T20:45:02.416Z,5.10
2019-03-12T20:48:18.928Z,1.90
2019-03-12T20:51:22.539Z,1.93
2019-03-12T20:54:40.679Z,3.90
2019-03-12T20:57:57.676Z,3.13
2019-03-12T21:01:12.520Z,2.50
2019-03-12T21:04:23.169Z,1.50
2019-03-12T21:07:25.095Z,7.70
2019-03-12T21:10:38.894Z,4.60
2019-03-12T21:13:39.064Z,2.77
2019-03-12T21:16:40.254Z,2.33
2019-03-12T21:19:44.921Z,2.27
2019-03-12T21:23:12.025Z,4.10
2019-03-12T21:26:24.073Z,1.23
2019-03-12T21:29:32.047Z,4.50
2019-03-12T21:31:59.261Z,2.60
2019-03-12T21:34:26.231Z,2.97
2019-03-12T21:36:53.246Z,3.83
2019-03-12T21:39:20.258Z,2.73
2019-03-12T21:41:47.395Z,3.23
2019-03-12T21:44:14.556Z,4.57
2019-03-12T21:46:41.682Z,3.90
2019-03-12T21:49:08.679Z,1.90
2019-03-12T21:51:35.756Z,3.60
2019-03-12T21:54:03.007Z,4.77
2019-03-12T21:56:30.101Z,1.33
2019-03-12T21:58:57.014Z,5.37
2019-03-12T22:01:24.264Z,1.67
2019-03-12T22:03:51.252Z,1.97
2019-03-12T22:06:18.316Z,4.27
2019-03-12T22:08:45.346Z,6.20
2019-03-12T22:11:12.396Z,1.97
2019-03-12T22:13:39.356Z,2.83
2019-03-12T22:16:06.394Z,8.10
2019-03-12T22:18:33.402Z,4.93
2019-03-12T22:21:00.437Z,2.60
2019-03-12T22:23:32.157Z,2.70
2019-03-12T22:25:59.168Z,2.07
2019-03-12T22:28:26.128Z,2.83
2019-03-12T22:30:53.127Z,0.83
2019-03-12T22:33:20.150Z,0.80
2019-03-12T22:35:47.148Z,0.63
2019-03-12T22:38:14.150Z,2.53
2019-03-12T22:40:41.117Z,0.90
2019-03-12T22:43:08.105Z,1.90
2019-03-12T22:45:35.272Z,0.60
2019-03-12T22:48:02.242Z,0.80
2019-03-12T22:50:29.247Z,1.07
2019-03-12T22:52:56.337Z,5.10
2019-03-12T22:55:23.336Z,0.90
2019-03-12T22:57:50.310Z,1.03
2019-03-12T23:00:17.272Z,1.33
2019-03-12T23:02:44.264Z,1.03
2019-03-12T23:05:11.456Z,2.00
2019-03-12T23:07:38.434Z,0.70
2019-03-12T23:10:05.618Z,0.63
2019-03-12T23:12:32.602Z,0.63
2019-03-12T23:14:59.528Z,0.90
2019-03-12T23:17:26.495Z,1.53
2019-03-12T23:19:53.564Z,1.27
2019-03-12T23:22:20.548Z,1.10
2019-03-12T23:24:47.518Z,0.90
2019-03-12T23:27:14.545Z,1.03
2019-03-12T23:29:41.728Z,2.00
2019-03-12T23:32:08.686Z,1.70
2019-03-12T23:34:35.808Z,2.10
2019-03-12T23:37:02.877Z,1.77
2019-03-12T23:39:29.853Z,2.27
2019-03-12T23:41:56.835Z,1.90
2019-03-12T23:44:23.783Z,3.73
2019-03-12T23:46:50.757Z,2.47
2019-03-12T23:49:18.113Z,2.60
2019-03-12T23:51:45.147Z,2.60
2019-03-12T23:54:12.213Z,6.53
2019-03-12T23:56:39.293Z,3.17
2019-03-12T23:59:06.292Z,3.10
